sensor_id;sensor_type;location;lat;lon;timestamp;temperature;humidity
43047;DHT22;28672;49.358;8.780;2022-07-17T00:00:37;15.10;99.90
43047;DHT22;28672;49.358;8.780;2022-07-17T00:03:06;15.10;99.90
43047;DHT22;28672;49.358;8.780;2022-07-17T00:05:31;15.00;99.90
43047;DHT22;28672;49.358;8.780;2022-07-17T00:07:57;15.00;99.90
43047;DHT22;28672;49.358;8.780;2022-07-17T00:10:23;14.90;99.90
43047;DHT22;28672;49.358;8.780;2022-07-17T00:12:48;14.80;99.90
43047;DHT22;28672;49.358;8.780;2022-07-17T00:15:14;14.80;99.90
43047;DHT22;28672;49.358;8.780;2022-07-17T00:17:40;14.80;99.90
43047;DHT22;28672;49.358;8.780;2022-07-17T00:20:07;14.70;99.90
43047;DHT22;28672;49.358;8.780;2022-07-17T00:22:33;14.60;99.90
43047;DHT22;28672;49.358;8.780;2022-07-17T00:24:59;14.60;99.90
43047;DHT22;28672;49.358;8.780;2022-07-17T00:27:24;14.40;99.90
43047;DHT22;28672;49.358;8.780;2022-07-17T00:29:50;14.30;99.90
43047;DHT22;28672;49.358;8.780;2022-07-17T00:32:16;14.30;99.90
43047;DHT22;28672;49.358;8.780;2022-07-17T00:34:42;14.30;99.90
43047;DHT22;28672;49.358;8.780;2022-07-17T00:37:08;14.20;99.90
43047;DHT22;28672;49.358;8.780;2022-07-17T00:39:34;14.20;99.90
43047;DHT22;28672;49.358;8.780;2022-07-17T00:42:00;14.20;99.90
43047;DHT22;28672;49.358;8.780;2022-07-17T00:44:27;14.20;99.90
43047;DHT22;28672;49.358;8.780;2022-07-17T00:46:55;14.10;99.90
43047;DHT22;28672;49.358;8.780;2022-07-17T00:49:21;14.10;99.90
43047;DHT22;28672;49.358;8.780;2022-07-17T00:51:47;14.10;99.90
43047;DHT22;28672;49.358;8.780;2022-07-17T00:54:14;14.10;99.90
43047;DHT22;28672;49.358;8.780;2022-07-17T00:56:42;14.10;99.90
43047;DHT22;28672;49.358;8.780;2022-07-17T00:59:11;14.10;99.90
43047;DHT22;28672;49.358;8.780;2022-07-17T01:01:37;14.10;99.90
43047;DHT22;28672;49.358;8.780;2022-07-17T01:04:02;14.10;99.90
43047;DHT22;28672;49.358;8.780;2022-07-17T01:06:28;14.10;99.90
43047;DHT22;28672;49.358;8.780;2022-07-17T01:08:54;14.10;99.90
43047;DHT22;28672;49.358;8.780;2022-07-17T01:11:20;14.00;99.90
43047;DHT22;28672;49.358;8.780;2022-07-17T01:13:46;14.00;99.90
43047;DHT22;28672;49.358;8.780;2022-07-17T01:16:12;14.00;99.90
43047;DHT22;28672;49.358;8.780;2022-07-17T01:18:38;14.00;99.90
43047;DHT22;28672;49.358;8.780;2022-07-17T01:21:07;13.80;99.90
43047;DHT22;28672;49.358;8.780;2022-07-17T01:23:32;13.80;99.90
43047;DHT22;28672;49.358;8.780;2022-07-17T01:25:58;13.70;99.90
43047;DHT22;28672;49.358;8.780;2022-07-17T01:28:24;13.70;99.90
43047;DHT22;28672;49.358;8.780;2022-07-17T01:30:51;13.60;99.90
43047;DHT22;28672;49.358;8.780;2022-07-17T01:33:17;13.60;99.90
43047;DHT22;28672;49.358;8.780;2022-07-17T01:35:43;13.60;99.90
43047;DHT22;28672;49.358;8.780;2022-07-17T01:38:09;13.50;99.90
43047;DHT22;28672;49.358;8.780;2022-07-17T01:40:35;13.50;99.90
43047;DHT22;28672;49.358;8.780;2022-07-17T01:43:00;13.50;99.90
43047;DHT22;28672;49.358;8.780;2022-07-17T01:45:26;13.40;99.90
43047;DHT22;28672;49.358;8.780;2022-07-17T01:47:52;13.40;99.90
43047;DHT22;28672;49.358;8.780;2022-07-17T01:50:18;13.30;99.90
43047;DHT22;28672;49.358;8.780;2022-07-17T01:52:44;13.30;99.90
43047;DHT22;28672;49.358;8.780;2022-07-17T01:55:12;13.20;99.90
43047;DHT22;28672;49.358;8.780;2022-07-17T01:57:38;13.20;99.90
43047;DHT22;28672;49.358;8.780;2022-07-17T02:00:08;13.10;99.90
43047;DHT22;28672;49.358;8.780;2022-07-17T02:02:34;13.10;99.90
43047;DHT22;28672;49.358;8.780;2022-07-17T02:05:00;13.10;99.90
43047;DHT22;28672;49.358;8.780;2022-07-17T02:07:25;13.00;99.90
43047;DHT22;28672;49.358;8.780;2022-07-17T02:09:51;13.00;99.90
43047;DHT22;28672;49.358;8.780;2022-07-17T02:12:17;12.90;99.90
43047;DHT22;28672;49.358;8.780;2022-07-17T02:14:42;12.90;99.90
43047;DHT22;28672;49.358;8.780;2022-07-17T02:17:08;12.80;99.90
43047;DHT22;28672;49.358;8.780;2022-07-17T02:19:33;12.80;99.90
43047;DHT22;28672;49.358;8.780;2022-07-17T02:21:59;12.70;99.90
43047;DHT22;28672;49.358;8.780;2022-07-17T02:24:25;12.70;99.90
43047;DHT22;28672;49.358;8.780;2022-07-17T02:26:50;12.60;99.90
43047;DHT22;28672;49.358;8.780;2022-07-17T02:29:16;12.60;99.90
43047;DHT22;28672;49.358;8.780;2022-07-17T02:31:41;12.50;99.90
43047;DHT22;28672;49.358;8.780;2022-07-17T02:34:07;12.50;99.90
43047;DHT22;28672;49.358;8.780;2022-07-17T02:36:32;12.40;99.90
43047;DHT22;28672;49.358;8.780;2022-07-17T02:38:59;12.40;99.90
43047;DHT22;28672;49.358;8.780;2022-07-17T02:41:25;12.40;99.90
43047;DHT22;28672;49.358;8.780;2022-07-17T02:43:51;12.40;99.90
43047;DHT22;28672;49.358;8.780;2022-07-17T02:46:17;12.40;99.90
43047;DHT22;28672;49.358;8.780;2022-07-17T02:48:42;12.40;99.90
43047;DHT22;28672;49.358;8.780;2022-07-17T02:51:08;12.40;99.90
43047;DHT22;28672;49.358;8.780;2022-07-17T02:53:34;12.40;99.90
43047;DHT22;28672;49.358;8.780;2022-07-17T02:56:00;12.30;99.90
43047;DHT22;28672;49.358;8.780;2022-07-17T02:58:25;12.30;99.90
43047;DHT22;28672;49.358;8.780;2022-07-17T03:00:51;12.20;99.90
43047;DHT22;28672;49.358;8.780;2022-07-17T03:03:17;12.30;99.90
43047;DHT22;28672;49.358;8.780;2022-07-17T03:05:45;12.20;99.90
43047;DHT22;28672;49.358;8.780;2022-07-17T03:08:10;12.20;99.90
43047;DHT22;28672;49.358;8.780;2022-07-17T03:10:36;12.20;99.90
43047;DHT22;28672;49.358;8.780;2022-07-17T03:13:02;12.10;99.90
43047;DHT22;28672;49.358;8.780;2022-07-17T03:15:27;12.10;99.90
43047;DHT22;28672;49.358;8.780;2022-07-17T03:17:53;12.10;99.90
43047;DHT22;28672;49.358;8.780;2022-07-17T03:20:18;12.00;99.90
43047;DHT22;28672;49.358;8.780;2022-07-17T03:22:44;12.00;99.90
43047;DHT22;28672;49.358;8.780;2022-07-17T03:25:10;12.00;99.90
43047;DHT22;28672;49.358;8.780;2022-07-17T03:27:35;11.90;99.90
43047;DHT22;28672;49.358;8.780;2022-07-17T03:30:01;11.90;99.90
43047;DHT22;28672;49.358;8.780;2022-07-17T03:32:27;11.90;99.90
43047;DHT22;28672;49.358;8.780;2022-07-17T03:34:53;11.80;99.90
43047;DHT22;28672;49.358;8.780;2022-07-17T03:37:19;11.80;99.90
43047;DHT22;28672;49.358;8.780;2022-07-17T03:39:44;11.80;99.90
43047;DHT22;28672;49.358;8.780;2022-07-17T03:42:10;11.80;99.90
43047;DHT22;28672;49.358;8.780;2022-07-17T03:44:35;11.80;99.90
43047;DHT22;28672;49.358;8.780;2022-07-17T03:47:01;11.80;99.90
43047;DHT22;28672;49.358;8.780;2022-07-17T03:49:27;11.70;99.90
43047;DHT22;28672;49.358;8.780;2022-07-17T03:51:52;11.70;99.90
43047;DHT22;28672;49.358;8.780;2022-07-17T03:54:18;11.70;99.90
43047;DHT22;28672;49.358;8.780;2022-07-17T03:56:43;11.80;99.90
43047;DHT22;28672;49.358;8.780;2022-07-17T03:59:09;11.80;99.90
43047;DHT22;28672;49.358;8.780;2022-07-17T04:01:34;11.80;99.90
43047;DHT22;28672;49.358;8.780;2022-07-17T04:04:00;11.80;99.90
43047;DHT22;28672;49.358;8.780;2022-07-17T04:06:26;11.70;99.90
43047;DHT22;28672;49.358;8.780;2022-07-17T04:08:52;11.70;99.90
43047;DHT22;28672;49.358;8.780;2022-07-17T04:11:17;11.80;99.90
43047;DHT22;28672;49.358;8.780;2022-07-17T04:13:45;11.80;99.90
43047;DHT22;28672;49.358;8.780;2022-07-17T04:16:11;11.90;99.90
43047;DHT22;28672;49.358;8.780;2022-07-17T04:18:36;12.00;99.90
43047;DHT22;28672;49.358;8.780;2022-07-17T04:21:05;12.00;99.90
43047;DHT22;28672;49.358;8.780;2022-07-17T04:23:31;12.10;99.90
43047;DHT22;28672;49.358;8.780;2022-07-17T04:25:57;12.20;99.90
43047;DHT22;28672;49.358;8.780;2022-07-17T04:28:23;12.20;99.90
43047;DHT22;28672;49.358;8.780;2022-07-17T04:30:48;12.30;99.90
43047;DHT22;28672;49.358;8.780;2022-07-17T04:33:14;12.40;99.90
43047;DHT22;28672;49.358;8.780;2022-07-17T04:35:40;12.40;99.90
43047;DHT22;28672;49.358;8.780;2022-07-17T04:38:07;12.50;99.90
43047;DHT22;28672;49.358;8.780;2022-07-17T04:40:33;12.60;99.90
43047;DHT22;28672;49.358;8.780;2022-07-17T04:42:59;12.80;99.90
43047;DHT22;28672;49.358;8.780;2022-07-17T04:45:25;13.10;99.90
43047;DHT22;28672;49.358;8.780;2022-07-17T04:47:51;13.80;99.90
43047;DHT22;28672;49.358;8.780;2022-07-17T04:50:16;14.50;99.90
43047;DHT22;28672;49.358;8.780;2022-07-17T04:52:42;15.10;99.90
43047;DHT22;28672;49.358;8.780;2022-07-17T04:55:08;15.50;99.90
43047;DHT22;28672;49.358;8.780;2022-07-17T04:57:33;16.00;99.90
43047;DHT22;28672;49.358;8.780;2022-07-17T05:00:00;16.40;99.90
43047;DHT22;28672;49.358;8.780;2022-07-17T05:02:25;17.10;99.90
43047;DHT22;28672;49.358;8.780;2022-07-17T05:04:51;17.30;99.90
43047;DHT22;28672;49.358;8.780;2022-07-17T05:07:17;17.20;99.90
43047;DHT22;28672;49.358;8.780;2022-07-17T05:09:42;17.20;99.90
43047;DHT22;28672;49.358;8.780;2022-07-17T05:12:08;17.30;99.90
43047;DHT22;28672;49.358;8.780;2022-07-17T05:14:34;17.60;99.90
43047;DHT22;28672;49.358;8.780;2022-07-17T05:16:59;17.50;99.90
43047;DHT22;28672;49.358;8.780;2022-07-17T05:19:25;17.50;99.90
43047;DHT22;28672;49.358;8.780;2022-07-17T05:21:50;18.00;99.90
43047;DHT22;28672;49.358;8.780;2022-07-17T05:24:16;18.30;99.90
43047;DHT22;28672;49.358;8.780;2022-07-17T05:26:42;17.90;99.90
43047;DHT22;28672;49.358;8.780;2022-07-17T05:29:07;18.40;99.90
43047;DHT22;28672;49.358;8.780;2022-07-17T05:31:33;18.30;99.90
43047;DHT22;28672;49.358;8.780;2022-07-17T05:33:58;18.70;99.90
43047;DHT22;28672;49.358;8.780;2022-07-17T05:36:24;18.60;99.90
43047;DHT22;28672;49.358;8.780;2022-07-17T05:38:49;18.60;99.90
43047;DHT22;28672;49.358;8.780;2022-07-17T05:41:15;18.50;99.90
43047;DHT22;28672;49.358;8.780;2022-07-17T05:43:40;18.50;99.90
43047;DHT22;28672;49.358;8.780;2022-07-17T05:46:06;18.90;99.90
43047;DHT22;28672;49.358;8.780;2022-07-17T05:48:31;19.50;99.90
43047;DHT22;28672;49.358;8.780;2022-07-17T05:50:57;19.60;99.90
43047;DHT22;28672;49.358;8.780;2022-07-17T05:53:23;19.80;99.90
43047;DHT22;28672;49.358;8.780;2022-07-17T05:55:49;19.60;99.90
43047;DHT22;28672;49.358;8.780;2022-07-17T05:58:14;19.80;99.90
43047;DHT22;28672;49.358;8.780;2022-07-17T06:00:40;20.00;99.90
43047;DHT22;28672;49.358;8.780;2022-07-17T06:03:06;20.10;99.90
43047;DHT22;28672;49.358;8.780;2022-07-17T06:05:31;20.10;99.90
43047;DHT22;28672;49.358;8.780;2022-07-17T06:07:57;20.20;99.90
43047;DHT22;28672;49.358;8.780;2022-07-17T06:10:24;20.20;99.90
43047;DHT22;28672;49.358;8.780;2022-07-17T06:12:50;20.00;99.90
43047;DHT22;28672;49.358;8.780;2022-07-17T06:15:18;19.80;99.90
43047;DHT22;28672;49.358;8.780;2022-07-17T06:17:44;20.10;99.90
43047;DHT22;28672;49.358;8.780;2022-07-17T06:20:10;20.60;99.90
43047;DHT22;28672;49.358;8.780;2022-07-17T06:22:35;20.80;99.90
43047;DHT22;28672;49.358;8.780;2022-07-17T06:25:01;20.90;99.90
43047;DHT22;28672;49.358;8.780;2022-07-17T06:27:26;21.20;99.90
43047;DHT22;28672;49.358;8.780;2022-07-17T06:29:52;21.50;99.90
43047;DHT22;28672;49.358;8.780;2022-07-17T06:32:17;21.50;99.90
43047;DHT22;28672;49.358;8.780;2022-07-17T06:34:43;21.50;99.90
43047;DHT22;28672;49.358;8.780;2022-07-17T06:37:08;21.70;99.90
43047;DHT22;28672;49.358;8.780;2022-07-17T06:39:34;22.10;99.90
43047;DHT22;28672;49.358;8.780;2022-07-17T06:42:00;22.20;99.90
43047;DHT22;28672;49.358;8.780;2022-07-17T06:44:26;22.40;99.90
43047;DHT22;28672;49.358;8.780;2022-07-17T06:46:51;22.50;99.90
43047;DHT22;28672;49.358;8.780;2022-07-17T06:49:17;22.50;99.90
43047;DHT22;28672;49.358;8.780;2022-07-17T06:51:42;23.20;99.90
43047;DHT22;28672;49.358;8.780;2022-07-17T06:54:11;23.10;99.90
43047;DHT22;28672;49.358;8.780;2022-07-17T06:56:37;23.30;99.90
43047;DHT22;28672;49.358;8.780;2022-07-17T06:59:03;23.40;99.90
43047;DHT22;28672;49.358;8.780;2022-07-17T07:01:28;23.70;99.90
43047;DHT22;28672;49.358;8.780;2022-07-17T07:03:54;24.10;99.90
43047;DHT22;28672;49.358;8.780;2022-07-17T07:06:19;24.10;99.90
43047;DHT22;28672;49.358;8.780;2022-07-17T07:08:45;23.90;99.90
43047;DHT22;28672;49.358;8.780;2022-07-17T07:11:10;23.70;99.90
43047;DHT22;28672;49.358;8.780;2022-07-17T07:13:36;24.00;99.90
43047;DHT22;28672;49.358;8.780;2022-07-17T07:16:01;23.80;99.90
43047;DHT22;28672;49.358;8.780;2022-07-17T07:18:27;23.90;99.90
43047;DHT22;28672;49.358;8.780;2022-07-17T07:20:53;24.40;99.90
43047;DHT22;28672;49.358;8.780;2022-07-17T07:23:18;24.30;99.90
43047;DHT22;28672;49.358;8.780;2022-07-17T07:25:44;24.00;99.90
43047;DHT22;28672;49.358;8.780;2022-07-17T07:28:10;23.60;99.90
43047;DHT22;28672;49.358;8.780;2022-07-17T07:30:35;23.90;99.90
43047;DHT22;28672;49.358;8.780;2022-07-17T07:33:01;23.70;99.90
43047;DHT22;28672;49.358;8.780;2022-07-17T07:35:27;24.00;99.90
43047;DHT22;28672;49.358;8.780;2022-07-17T07:37:52;24.20;99.90
43047;DHT22;28672;49.358;8.780;2022-07-17T07:40:18;24.20;99.90
43047;DHT22;28672;49.358;8.780;2022-07-17T07:42:44;24.10;99.90
43047;DHT22;28672;49.358;8.780;2022-07-17T07:45:10;24.20;99.90
43047;DHT22;28672;49.358;8.780;2022-07-17T07:47:46;23.80;99.90
43047;DHT22;28672;49.358;8.780;2022-07-17T07:50:13;23.90;99.80
43047;DHT22;28672;49.358;8.780;2022-07-17T07:52:39;24.20;99.90
43047;DHT22;28672;49.358;8.780;2022-07-17T07:55:05;23.90;99.80
43047;DHT22;28672;49.358;8.780;2022-07-17T07:57:31;24.10;99.90
43047;DHT22;28672;49.358;8.780;2022-07-17T07:59:56;23.90;99.90
43047;DHT22;28672;49.358;8.780;2022-07-17T08:02:22;23.90;99.90
43047;DHT22;28672;49.358;8.780;2022-07-17T08:04:47;24.30;99.90
43047;DHT22;28672;49.358;8.780;2022-07-17T08:07:13;24.00;99.30
43047;DHT22;28672;49.358;8.780;2022-07-17T08:09:38;24.10;99.30
43047;DHT22;28672;49.358;8.780;2022-07-17T08:12:04;24.60;98.70
43047;DHT22;28672;49.358;8.780;2022-07-17T08:14:30;24.80;98.50
43047;DHT22;28672;49.358;8.780;2022-07-17T08:16:55;25.00;98.00
43047;DHT22;28672;49.358;8.780;2022-07-17T08:19:21;25.00;98.40
43047;DHT22;28672;49.358;8.780;2022-07-17T08:21:46;24.80;97.70
43047;DHT22;28672;49.358;8.780;2022-07-17T08:24:12;25.20;97.80
43047;DHT22;28672;49.358;8.780;2022-07-17T08:26:37;25.20;97.00
43047;DHT22;28672;49.358;8.780;2022-07-17T08:29:03;25.00;97.00
43047;DHT22;28672;49.358;8.780;2022-07-17T08:31:29;25.00;96.90
43047;DHT22;28672;49.358;8.780;2022-07-17T08:33:54;24.90;97.10
43047;DHT22;28672;49.358;8.780;2022-07-17T08:36:20;25.60;97.00
43047;DHT22;28672;49.358;8.780;2022-07-17T08:38:46;25.80;96.80
43047;DHT22;28672;49.358;8.780;2022-07-17T08:41:14;26.20;96.00
43047;DHT22;28672;49.358;8.780;2022-07-17T08:43:42;26.20;96.20
43047;DHT22;28672;49.358;8.780;2022-07-17T08:46:10;26.10;95.40
43047;DHT22;28672;49.358;8.780;2022-07-17T08:48:35;26.60;94.90
43047;DHT22;28672;49.358;8.780;2022-07-17T08:51:03;26.70;94.60
43047;DHT22;28672;49.358;8.780;2022-07-17T08:53:30;26.60;94.60
43047;DHT22;28672;49.358;8.780;2022-07-17T08:55:55;26.40;94.10
43047;DHT22;28672;49.358;8.780;2022-07-17T08:58:21;26.50;93.60
43047;DHT22;28672;49.358;8.780;2022-07-17T09:00:46;26.50;93.80
43047;DHT22;28672;49.358;8.780;2022-07-17T09:03:14;26.40;93.50
43047;DHT22;28672;49.358;8.780;2022-07-17T09:05:40;26.70;94.00
43047;DHT22;28672;49.358;8.780;2022-07-17T09:08:19;26.30;93.30
43047;DHT22;28672;49.358;8.780;2022-07-17T09:10:47;26.30;93.20
43047;DHT22;28672;49.358;8.780;2022-07-17T09:15:42;25.90;93.00
43047;DHT22;28672;49.358;8.780;2022-07-17T09:18:08;26.30;93.30
43047;DHT22;28672;49.358;8.780;2022-07-17T09:20:34;26.60;92.90
43047;DHT22;28672;49.358;8.780;2022-07-17T09:23:01;26.90;93.80
43047;DHT22;28672;49.358;8.780;2022-07-17T09:25:42;27.10;93.10
43047;DHT22;28672;49.358;8.780;2022-07-17T09:28:09;27.30;92.30
43047;DHT22;28672;49.358;8.780;2022-07-17T09:30:39;27.50;92.10
43047;DHT22;28672;49.358;8.780;2022-07-17T09:33:16;27.40;90.10
43047;DHT22;28672;49.358;8.780;2022-07-17T09:35:54;26.70;90.80
43047;DHT22;28672;49.358;8.780;2022-07-17T09:38:30;27.10;91.50
43047;DHT22;28672;49.358;8.780;2022-07-17T09:41:09;26.80;91.10
43047;DHT22;28672;49.358;8.780;2022-07-17T09:46:25;27.70;90.60
43047;DHT22;28672;49.358;8.780;2022-07-17T09:48:57;28.10;90.00
43047;DHT22;28672;49.358;8.780;2022-07-17T09:51:25;28.60;89.60
43047;DHT22;28672;49.358;8.780;2022-07-17T09:53:56;28.60;89.70
43047;DHT22;28672;49.358;8.780;2022-07-17T09:56:24;28.00;86.10
43047;DHT22;28672;49.358;8.780;2022-07-17T09:58:56;27.80;85.80
43047;DHT22;28672;49.358;8.780;2022-07-17T10:01:25;28.00;86.00
43047;DHT22;28672;49.358;8.780;2022-07-17T10:03:51;27.80;85.30
43047;DHT22;28672;49.358;8.780;2022-07-17T10:06:19;27.70;85.40
43047;DHT22;28672;49.358;8.780;2022-07-17T10:08:44;27.20;86.00
43047;DHT22;28672;49.358;8.780;2022-07-17T10:11:11;27.30;86.40
43047;DHT22;28672;49.358;8.780;2022-07-17T10:13:39;27.20;87.10
43047;DHT22;28672;49.358;8.780;2022-07-17T10:16:06;27.40;86.80
43047;DHT22;28672;49.358;8.780;2022-07-17T10:21:10;27.70;85.00
43047;DHT22;28672;49.358;8.780;2022-07-17T10:23:37;27.60;86.10
43047;DHT22;28672;49.358;8.780;2022-07-17T10:26:02;28.00;83.80
43047;DHT22;28672;49.358;8.780;2022-07-17T10:28:42;28.20;84.30
43047;DHT22;28672;49.358;8.780;2022-07-17T10:31:08;28.40;82.90
43047;DHT22;28672;49.358;8.780;2022-07-17T10:33:34;28.30;82.50
43047;DHT22;28672;49.358;8.780;2022-07-17T10:36:00;28.00;82.80
43047;DHT22;28672;49.358;8.780;2022-07-17T10:38:27;28.20;83.20
43047;DHT22;28672;49.358;8.780;2022-07-17T10:41:03;28.40;83.60
43047;DHT22;28672;49.358;8.780;2022-07-17T10:43:43;28.40;82.30
43047;DHT22;28672;49.358;8.780;2022-07-17T10:46:09;28.60;80.80
43047;DHT22;28672;49.358;8.780;2022-07-17T10:48:35;28.30;81.20
43047;DHT22;28672;49.358;8.780;2022-07-17T10:51:01;28.20;80.80
43047;DHT22;28672;49.358;8.780;2022-07-17T10:53:31;28.10;82.20
43047;DHT22;28672;49.358;8.780;2022-07-17T10:56:03;28.00;82.10
43047;DHT22;28672;49.358;8.780;2022-07-17T10:58:31;28.10;81.50
43047;DHT22;28672;49.358;8.780;2022-07-17T11:01:05;28.30;81.40
43047;DHT22;28672;49.358;8.780;2022-07-17T11:03:36;28.50;80.60
43047;DHT22;28672;49.358;8.780;2022-07-17T11:06:22;28.80;78.80
43047;DHT22;28672;49.358;8.780;2022-07-17T11:08:49;29.00;78.50
43047;DHT22;28672;49.358;8.780;2022-07-17T11:11:17;28.80;78.40
43047;DHT22;28672;49.358;8.780;2022-07-17T11:13:43;28.60;78.30
43047;DHT22;28672;49.358;8.780;2022-07-17T11:16:09;28.60;78.90
43047;DHT22;28672;49.358;8.780;2022-07-17T11:18:34;28.70;79.50
43047;DHT22;28672;49.358;8.780;2022-07-17T11:21:02;28.80;78.10
43047;DHT22;28672;49.358;8.780;2022-07-17T11:23:30;29.10;78.60
43047;DHT22;28672;49.358;8.780;2022-07-17T11:26:06;29.50;78.90
43047;DHT22;28672;49.358;8.780;2022-07-17T11:28:43;29.50;75.80
43047;DHT22;28672;49.358;8.780;2022-07-17T11:31:24;29.70;76.70
43047;DHT22;28672;49.358;8.780;2022-07-17T11:34:11;29.40;75.80
43047;DHT22;28672;49.358;8.780;2022-07-17T11:36:39;29.70;75.80
43047;DHT22;28672;49.358;8.780;2022-07-17T11:39:10;29.90;75.50
43047;DHT22;28672;49.358;8.780;2022-07-17T11:41:40;29.90;76.40
43047;DHT22;28672;49.358;8.780;2022-07-17T11:44:10;29.90;75.00
43047;DHT22;28672;49.358;8.780;2022-07-17T11:46:36;29.50;74.90
43047;DHT22;28672;49.358;8.780;2022-07-17T11:49:03;29.50;75.20
43047;DHT22;28672;49.358;8.780;2022-07-17T11:51:41;29.40;76.60
43047;DHT22;28672;49.358;8.780;2022-07-17T11:54:11;29.50;75.60
43047;DHT22;28672;49.358;8.780;2022-07-17T11:56:38;29.60;75.00
43047;DHT22;28672;49.358;8.780;2022-07-17T11:59:04;29.90;75.40
43047;DHT22;28672;49.358;8.780;2022-07-17T12:01:44;29.80;76.00
43047;DHT22;28672;49.358;8.780;2022-07-17T12:04:12;29.50;73.80
43047;DHT22;28672;49.358;8.780;2022-07-17T12:06:38;29.70;73.00
43047;DHT22;28672;49.358;8.780;2022-07-17T12:09:05;29.60;73.60
43047;DHT22;28672;49.358;8.780;2022-07-17T12:11:31;29.20;73.00
43047;DHT22;28672;49.358;8.780;2022-07-17T12:14:04;29.30;74.60
43047;DHT22;28672;49.358;8.780;2022-07-17T12:16:33;29.10;73.90
43047;DHT22;28672;49.358;8.780;2022-07-17T12:19:05;29.40;75.30
43047;DHT22;28672;49.358;8.780;2022-07-17T12:21:32;29.90;72.70
43047;DHT22;28672;49.358;8.780;2022-07-17T12:24:04;30.20;72.30
43047;DHT22;28672;49.358;8.780;2022-07-17T12:26:30;30.60;71.50
43047;DHT22;28672;49.358;8.780;2022-07-17T12:28:56;30.00;71.90
43047;DHT22;28672;49.358;8.780;2022-07-17T12:31:22;30.00;72.60
43047;DHT22;28672;49.358;8.780;2022-07-17T12:33:51;29.70;73.20
43047;DHT22;28672;49.358;8.780;2022-07-17T12:36:17;29.70;72.00
43047;DHT22;28672;49.358;8.780;2022-07-17T12:38:43;29.70;75.50
43047;DHT22;28672;49.358;8.780;2022-07-17T12:41:09;30.00;70.80
43047;DHT22;28672;49.358;8.780;2022-07-17T12:43:35;30.00;72.40
43047;DHT22;28672;49.358;8.780;2022-07-17T12:46:00;30.20;72.80
43047;DHT22;28672;49.358;8.780;2022-07-17T12:48:26;30.40;71.70
43047;DHT22;28672;49.358;8.780;2022-07-17T12:50:51;30.00;72.50
43047;DHT22;28672;49.358;8.780;2022-07-17T12:53:17;30.00;70.80
43047;DHT22;28672;49.358;8.780;2022-07-17T12:55:42;29.80;70.50
43047;DHT22;28672;49.358;8.780;2022-07-17T12:58:08;29.80;71.40
43047;DHT22;28672;49.358;8.780;2022-07-17T13:00:34;30.00;71.00
43047;DHT22;28672;49.358;8.780;2022-07-17T13:03:02;29.80;70.90
43047;DHT22;28672;49.358;8.780;2022-07-17T13:05:28;29.60;70.90
43047;DHT22;28672;49.358;8.780;2022-07-17T13:07:54;30.00;74.30
43047;DHT22;28672;49.358;8.780;2022-07-17T13:10:20;30.40;71.20
43047;DHT22;28672;49.358;8.780;2022-07-17T13:12:45;30.70;70.60
43047;DHT22;28672;49.358;8.780;2022-07-17T13:15:10;30.80;71.00
43047;DHT22;28672;49.358;8.780;2022-07-17T13:17:36;30.60;71.10
43047;DHT22;28672;49.358;8.780;2022-07-17T13:20:03;30.40;69.50
43047;DHT22;28672;49.358;8.780;2022-07-17T13:22:30;30.20;70.10
43047;DHT22;28672;49.358;8.780;2022-07-17T13:24:56;30.10;71.60
43047;DHT22;28672;49.358;8.780;2022-07-17T13:27:21;30.40;72.20
43047;DHT22;28672;49.358;8.780;2022-07-17T13:29:47;30.50;70.70
43047;DHT22;28672;49.358;8.780;2022-07-17T13:32:12;30.40;69.20
43047;DHT22;28672;49.358;8.780;2022-07-17T13:34:38;30.70;72.70
43047;DHT22;28672;49.358;8.780;2022-07-17T13:37:04;30.80;71.20
43047;DHT22;28672;49.358;8.780;2022-07-17T13:39:30;31.10;69.20
43047;DHT22;28672;49.358;8.780;2022-07-17T13:41:56;31.00;71.30
43047;DHT22;28672;49.358;8.780;2022-07-17T13:44:22;31.30;71.90
43047;DHT22;28672;49.358;8.780;2022-07-17T13:46:47;31.30;71.90
43047;DHT22;28672;49.358;8.780;2022-07-17T13:49:12;31.50;69.50
43047;DHT22;28672;49.358;8.780;2022-07-17T13:51:38;30.90;67.70
43047;DHT22;28672;49.358;8.780;2022-07-17T13:54:05;30.80;68.90
43047;DHT22;28672;49.358;8.780;2022-07-17T13:56:32;30.40;68.50
43047;DHT22;28672;49.358;8.780;2022-07-17T13:58:57;30.40;71.70
43047;DHT22;28672;49.358;8.780;2022-07-17T14:01:23;30.70;70.30
43047;DHT22;28672;49.358;8.780;2022-07-17T14:03:48;30.70;69.90
43047;DHT22;28672;49.358;8.780;2022-07-17T14:06:14;31.20;68.90
43047;DHT22;28672;49.358;8.780;2022-07-17T14:08:39;31.50;68.60
43047;DHT22;28672;49.358;8.780;2022-07-17T14:11:05;31.40;68.40
43047;DHT22;28672;49.358;8.780;2022-07-17T14:13:31;31.40;68.40
43047;DHT22;28672;49.358;8.780;2022-07-17T14:15:56;31.30;67.10
43047;DHT22;28672;49.358;8.780;2022-07-17T14:18:22;31.50;68.50
43047;DHT22;28672;49.358;8.780;2022-07-17T14:20:48;31.70;69.80
43047;DHT22;28672;49.358;8.780;2022-07-17T14:23:13;31.10;68.20
43047;DHT22;28672;49.358;8.780;2022-07-17T14:25:39;31.30;68.10
43047;DHT22;28672;49.358;8.780;2022-07-17T14:28:04;31.00;68.60
43047;DHT22;28672;49.358;8.780;2022-07-17T14:30:30;31.10;68.40
43047;DHT22;28672;49.358;8.780;2022-07-17T14:32:57;31.30;69.40
43047;DHT22;28672;49.358;8.780;2022-07-17T14:35:23;31.60;68.70
43047;DHT22;28672;49.358;8.780;2022-07-17T14:37:49;31.70;67.60
43047;DHT22;28672;49.358;8.780;2022-07-17T14:40:15;31.90;67.70
43047;DHT22;28672;49.358;8.780;2022-07-17T14:42:41;31.90;65.90
43047;DHT22;28672;49.358;8.780;2022-07-17T14:45:07;32.00;67.50
43047;DHT22;28672;49.358;8.780;2022-07-17T14:47:33;31.90;65.70
43047;DHT22;28672;49.358;8.780;2022-07-17T14:49:59;32.00;65.30
43047;DHT22;28672;49.358;8.780;2022-07-17T14:52:24;32.00;64.90
43047;DHT22;28672;49.358;8.780;2022-07-17T14:54:50;31.80;65.10
43047;DHT22;28672;49.358;8.780;2022-07-17T14:57:16;31.80;64.60
43047;DHT22;28672;49.358;8.780;2022-07-17T14:59:41;31.60;65.20
43047;DHT22;28672;49.358;8.780;2022-07-17T15:02:07;31.50;65.10
43047;DHT22;28672;49.358;8.780;2022-07-17T15:04:33;31.50;66.10
43047;DHT22;28672;49.358;8.780;2022-07-17T15:07:01;31.70;66.10
43047;DHT22;28672;49.358;8.780;2022-07-17T15:09:26;31.20;65.40
43047;DHT22;28672;49.358;8.780;2022-07-17T15:11:52;31.40;66.40
43047;DHT22;28672;49.358;8.780;2022-07-17T15:14:17;31.60;65.90
43047;DHT22;28672;49.358;8.780;2022-07-17T15:16:43;31.70;65.10
43047;DHT22;28672;49.358;8.780;2022-07-17T15:19:09;31.80;65.10
43047;DHT22;28672;49.358;8.780;2022-07-17T15:21:34;31.90;64.60
43047;DHT22;28672;49.358;8.780;2022-07-17T15:24:00;31.80;64.80
43047;DHT22;28672;49.358;8.780;2022-07-17T15:26:25;31.70;63.70
43047;DHT22;28672;49.358;8.780;2022-07-17T15:28:51;31.40;64.60
43047;DHT22;28672;49.358;8.780;2022-07-17T15:31:16;31.40;63.70
43047;DHT22;28672;49.358;8.780;2022-07-17T15:33:42;31.40;64.90